createdAt,value
2022-12-03T00:00:00.157Z,76
2022-12-03T00:04:00.389Z,76
2022-12-03T00:08:00.261Z,76
2022-12-03T00:12:00.121Z,76
2022-12-03T00:16:00.252Z,76
2022-12-03T00:20:00.241Z,76
2022-12-03T00:24:00.124Z,76
2022-12-03T00:28:00.159Z,76
2022-12-03T00:32:00.149Z,76
2022-12-03T00:36:00.385Z,76
2022-12-03T00:40:00.160Z,76
2022-12-03T00:44:00.148Z,76
2022-12-03T00:48:00.154Z,76
2022-12-03T00:52:00.150Z,76
2022-12-03T00:56:00.101Z,76
2022-12-03T01:00:00.173Z,76
2022-12-03T01:04:00.127Z,75
2022-12-03T01:08:00.212Z,75
2022-12-03T01:12:00.154Z,75
2022-12-03T01:16:00.168Z,75
2022-12-03T01:20:00.141Z,75
2022-12-03T01:24:00.150Z,75
2022-12-03T01:28:00.119Z,75
2022-12-03T01:32:00.144Z,75
2022-12-03T01:36:00.127Z,75
2022-12-03T01:40:00.174Z,75
2022-12-03T01:44:00.131Z,75
2022-12-03T01:48:00.116Z,75
2022-12-03T01:52:00.127Z,75
2022-12-03T01:56:00.128Z,75
2022-12-03T02:00:00.140Z,75
2022-12-03T02:04:00.391Z,75
2022-12-03T02:08:00.233Z,75
2022-12-03T02:12:00.155Z,75
2022-12-03T02:16:00.211Z,75
2022-12-03T02:20:00.139Z,75
2022-12-03T02:24:00.143Z,75
2022-12-03T02:28:00.135Z,75
2022-12-03T02:32:00.233Z,75
2022-12-03T02:36:03.521Z,75
2022-12-03T02:40:00.153Z,75
2022-12-03T02:44:00.180Z,75
2022-12-03T02:48:00.141Z,74
2022-12-03T02:52:00.138Z,74
2022-12-03T02:56:00.102Z,74
2022-12-03T03:00:00.213Z,74
2022-12-03T03:04:00.237Z,74
2022-12-03T03:08:00.228Z,74
2022-12-03T03:12:00.175Z,74
2022-12-03T03:16:00.235Z,74
2022-12-03T03:20:00.147Z,74
2022-12-03T03:24:00.110Z,74
2022-12-03T03:28:00.122Z,74
2022-12-03T03:32:00.276Z,74
2022-12-03T03:36:00.140Z,74
2022-12-03T03:40:00.131Z,74
2022-12-03T03:44:00.131Z,74
2022-12-03T03:48:00.110Z,75
2022-12-03T03:52:00.145Z,74
2022-12-03T03:56:00.110Z,74
2022-12-03T04:00:00.121Z,74
2022-12-03T04:04:00.236Z,75
2022-12-03T04:08:00.258Z,75
2022-12-03T04:12:00.158Z,75
2022-12-03T04:16:00.139Z,75
2022-12-03T04:20:00.148Z,75
2022-12-03T04:24:00.156Z,75
2022-12-03T04:28:00.131Z,75
2022-12-03T04:32:00.126Z,75
2022-12-03T04:36:00.163Z,76
2022-12-03T04:40:00.148Z,76
2022-12-03T04:44:00.124Z,76
2022-12-03T04:48:00.094Z,76
2022-12-03T04:52:00.128Z,76
2022-12-03T04:56:00.101Z,76
2022-12-03T05:00:00.195Z,77
2022-12-03T05:04:00.131Z,77
2022-12-03T05:08:00.229Z,77
2022-12-03T05:12:00.142Z,77
2022-12-03T05:16:00.121Z,77
2022-12-03T05:20:00.193Z,77
2022-12-03T05:24:00.150Z,78
2022-12-03T05:28:00.135Z,78
2022-12-03T05:32:00.120Z,78
2022-12-03T05:36:00.135Z,78
2022-12-03T05:40:00.241Z,78
2022-12-03T05:44:00.160Z,78
2022-12-03T05:48:00.143Z,78
2022-12-03T05:52:00.145Z,78
2022-12-03T05:56:00.120Z,78
2022-12-03T06:00:00.215Z,79
2022-12-03T06:04:00.284Z,79
2022-12-03T06:08:00.245Z,79
2022-12-03T06:12:00.122Z,79
2022-12-03T06:16:00.269Z,79
2022-12-03T06:20:00.161Z,79
2022-12-03T06:24:00.151Z,79
2022-12-03T06:28:00.122Z,79
2022-12-03T06:32:00.144Z,79
2022-12-03T06:36:00.102Z,79
2022-12-03T06:40:00.178Z,79
2022-12-03T06:44:00.117Z,79
2022-12-03T06:48:00.126Z,80
2022-12-03T06:52:00.127Z,80
2022-12-03T06:56:00.115Z,80
2022-12-03T07:00:00.137Z,80
2022-12-03T07:04:00.140Z,80
2022-12-03T07:08:00.212Z,80
2022-12-03T07:12:00.133Z,80
2022-12-03T07:16:00.189Z,81
2022-12-03T07:20:00.167Z,81
2022-12-03T07:24:00.117Z,81
2022-12-03T07:28:00.145Z,81
2022-12-03T07:32:00.125Z,81
2022-12-03T07:36:00.117Z,81
2022-12-03T07:40:00.154Z,81
2022-12-03T07:44:00.148Z,81
2022-12-03T07:48:00.139Z,81
2022-12-03T07:52:00.115Z,81
2022-12-03T07:56:00.141Z,81
2022-12-03T08:00:00.163Z,81
2022-12-03T08:04:00.152Z,81
2022-12-03T08:08:00.233Z,81
2022-12-03T08:12:00.149Z,81
2022-12-03T08:16:00.167Z,81
2022-12-03T08:20:00.171Z,81
2022-12-03T08:24:00.116Z,81
2022-12-03T08:28:00.109Z,81
2022-12-03T08:32:00.384Z,81
2022-12-03T08:36:00.115Z,81
2022-12-03T08:40:00.169Z,81
2022-12-03T08:44:00.155Z,81
2022-12-03T08:48:00.136Z,81
2022-12-03T08:52:00.119Z,81
2022-12-03T08:56:00.125Z,81
2022-12-03T09:00:00.229Z,80
2022-12-03T09:04:00.225Z,80
2022-12-03T09:08:00.232Z,80
2022-12-03T09:12:00.138Z,80
2022-12-03T09:16:00.122Z,80
2022-12-03T09:20:00.171Z,80
2022-12-03T09:24:00.150Z,80
2022-12-03T09:28:00.144Z,80
2022-12-03T09:32:00.234Z,80
2022-12-03T09:36:00.130Z,80
2022-12-03T09:40:00.210Z,80
2022-12-03T09:44:04.872Z,80
2022-12-03T09:48:00.140Z,79
2022-12-03T09:52:00.123Z,79
2022-12-03T09:56:00.122Z,79
2022-12-03T10:00:00.163Z,79
2022-12-03T10:04:00.183Z,79
2022-12-03T10:08:00.232Z,79
2022-12-03T10:12:00.161Z,79
2022-12-03T10:16:00.126Z,80
2022-12-03T10:20:00.177Z,80
2022-12-03T10:24:00.129Z,80
2022-12-03T10:28:00.130Z,80
2022-12-03T10:32:00.175Z,79
2022-12-03T10:36:00.126Z,79
2022-12-03T10:40:00.220Z,79
2022-12-03T10:44:00.118Z,79
2022-12-03T10:48:00.148Z,79
2022-12-03T10:52:00.128Z,79
2022-12-03T10:56:00.122Z,79
2022-12-03T11:00:00.124Z,79
2022-12-03T11:04:00.252Z,79
2022-12-03T11:08:00.311Z,79
2022-12-03T11:12:00.156Z,79
2022-12-03T11:16:00.252Z,79
2022-12-03T11:20:00.172Z,79
2022-12-03T11:24:00.117Z,79
2022-12-03T11:28:00.172Z,79
2022-12-03T11:32:00.254Z,79
2022-12-03T11:36:00.152Z,79
2022-12-03T11:40:00.175Z,79
2022-12-03T11:44:00.147Z,79
2022-12-03T11:48:00.142Z,79
2022-12-03T11:52:00.131Z,79
2022-12-03T11:56:04.332Z,79
2022-12-03T12:00:00.184Z,79
2022-12-03T12:04:00.221Z,79
2022-12-03T12:08:00.334Z,79
2022-12-03T12:12:00.135Z,79
2022-12-03T12:16:00.192Z,79
2022-12-03T12:20:00.331Z,79
2022-12-03T12:24:00.149Z,79
2022-12-03T12:28:00.154Z,79
2022-12-03T12:32:00.199Z,79
2022-12-03T12:36:00.134Z,79
2022-12-03T12:40:00.181Z,79
2022-12-03T12:44:00.129Z,79
2022-12-03T12:48:00.116Z,79
2022-12-03T12:52:00.123Z,79
2022-12-03T12:56:00.120Z,79
2022-12-03T13:00:00.164Z,79
2022-12-03T13:04:00.164Z,79
2022-12-03T13:08:00.223Z,79
2022-12-03T13:12:00.140Z,79
2022-12-03T13:16:00.200Z,79
2022-12-03T13:20:07.054Z,79
2022-12-03T13:24:00.145Z,79
2022-12-03T13:28:00.146Z,80
2022-12-03T13:32:00.235Z,80
2022-12-03T13:36:00.123Z,80
2022-12-03T13:40:00.158Z,80
2022-12-03T13:44:00.443Z,80
2022-12-03T13:48:00.145Z,80
2022-12-03T13:52:00.131Z,80
2022-12-03T13:56:00.133Z,80
2022-12-03T14:00:00.190Z,80
2022-12-03T14:04:00.117Z,80
2022-12-03T14:08:00.299Z,81
2022-12-03T14:12:00.137Z,81
2022-12-03T14:16:00.291Z,81
2022-12-03T14:20:00.152Z,81
2022-12-03T14:24:00.116Z,81
2022-12-03T14:28:00.154Z,81
2022-12-03T14:32:00.319Z,81
2022-12-03T14:36:00.121Z,81
2022-12-03T14:40:00.176Z,81
2022-12-03T14:44:00.114Z,81
2022-12-03T14:48:00.150Z,82
2022-12-03T14:52:00.159Z,82
2022-12-03T14:56:00.150Z,82
2022-12-03T15:00:00.195Z,82
2022-12-03T15:04:00.130Z,82
2022-12-03T15:08:00.163Z,82
2022-12-03T15:12:00.213Z,82
2022-12-03T15:16:00.144Z,82
2022-12-03T15:20:00.206Z,82
2022-12-03T15:24:00.169Z,82
2022-12-03T15:28:00.138Z,82
2022-12-03T15:32:00.133Z,82
2022-12-03T15:36:00.371Z,82
2022-12-03T15:40:00.174Z,82
2022-12-03T15:44:00.142Z,82
2022-12-03T15:48:00.137Z,82
2022-12-03T15:52:00.120Z,82
2022-12-03T15:56:00.139Z,82
2022-12-03T16:00:00.207Z,82
2022-12-03T16:04:00.151Z,82
2022-12-03T16:08:00.267Z,83
2022-12-03T16:12:00.142Z,83
2022-12-03T16:16:00.221Z,83
2022-12-03T16:20:00.170Z,83
2022-12-03T16:24:00.139Z,83
2022-12-03T16:28:00.122Z,83
2022-12-03T16:32:00.103Z,83
2022-12-03T16:36:00.142Z,83
2022-12-03T16:40:00.174Z,83
2022-12-03T16:44:00.144Z,83
2022-12-03T16:48:00.127Z,83
2022-12-03T16:52:00.146Z,83
2022-12-03T16:56:00.120Z,83
2022-12-03T17:00:00.250Z,83
2022-12-03T17:04:00.114Z,83
2022-12-03T17:08:00.251Z,83
2022-12-03T17:12:00.150Z,83
2022-12-03T17:16:00.252Z,83
2022-12-03T17:20:00.282Z,83
2022-12-03T17:24:00.134Z,83
2022-12-03T17:28:00.382Z,83
2022-12-03T17:32:00.196Z,83
2022-12-03T17:36:00.144Z,83
2022-12-03T17:40:00.169Z,83
2022-12-03T17:44:01.240Z,83
2022-12-03T17:48:00.118Z,83
2022-12-03T17:52:00.138Z,83
2022-12-03T17:56:00.162Z,83
2022-12-03T18:00:00.155Z,83
2022-12-03T18:04:00.222Z,83
2022-12-03T18:08:00.220Z,83
2022-12-03T18:12:00.122Z,83
2022-12-03T18:16:00.254Z,83
2022-12-03T18:20:00.258Z,83
2022-12-03T18:24:00.102Z,83
2022-12-03T18:28:00.111Z,83
2022-12-03T18:32:00.246Z,83
2022-12-03T18:36:00.123Z,83
2022-12-03T18:40:00.239Z,83
2022-12-03T18:44:00.130Z,84
2022-12-03T18:48:00.172Z,84
2022-12-03T18:52:00.122Z,84
2022-12-03T18:56:00.132Z,84
2022-12-03T19:00:00.176Z,84
2022-12-03T19:04:00.152Z,84
2022-12-03T19:08:00.255Z,84
2022-12-03T19:12:00.145Z,84
2022-12-03T19:16:00.197Z,84
2022-12-03T19:20:00.175Z,84
2022-12-03T19:24:23.330Z,84
2022-12-03T19:28:00.133Z,84
2022-12-03T19:32:00.237Z,84
2022-12-03T19:36:00.151Z,84
2022-12-03T19:40:00.188Z,84
2022-12-03T19:44:00.119Z,84
2022-12-03T19:48:00.130Z,84
2022-12-03T19:52:00.106Z,84
2022-12-03T19:56:00.144Z,84
2022-12-03T20:00:00.235Z,84
2022-12-03T20:04:00.164Z,84
2022-12-03T20:08:00.266Z,84
2022-12-03T20:12:00.122Z,84
2022-12-03T20:16:00.246Z,84
2022-12-03T20:20:00.166Z,84
2022-12-03T20:24:00.153Z,84
2022-12-03T20:28:00.133Z,84
2022-12-03T20:32:00.259Z,84
2022-12-03T20:36:00.121Z,84
2022-12-03T20:40:00.138Z,84
2022-12-03T20:44:00.141Z,84
2022-12-03T20:48:00.100Z,84
2022-12-03T20:52:04.377Z,84
2022-12-03T20:56:00.145Z,84
2022-12-03T21:00:00.141Z,84
2022-12-03T21:04:00.129Z,84
2022-12-03T21:08:00.449Z,84
2022-12-03T21:12:00.139Z,84
2022-12-03T21:16:00.144Z,84
2022-12-03T21:20:00.148Z,84
2022-12-03T21:24:00.141Z,84
2022-12-03T21:28:00.132Z,84
2022-12-03T21:32:00.126Z,84
2022-12-03T21:36:00.135Z,84
2022-12-03T21:40:00.139Z,84
2022-12-03T21:44:00.141Z,84
2022-12-03T21:48:00.204Z,84
2022-12-03T21:52:00.115Z,84
2022-12-03T21:56:00.148Z,84
2022-12-03T22:00:00.156Z,84
2022-12-03T22:04:00.129Z,84
2022-12-03T22:08:00.264Z,84
2022-12-03T22:12:00.111Z,84
2022-12-03T22:16:00.189Z,84
2022-12-03T22:20:00.220Z,84
2022-12-03T22:24:00.125Z,84
2022-12-03T22:28:00.125Z,84
2022-12-03T22:32:00.147Z,84
2022-12-03T22:36:00.145Z,84
2022-12-03T22:40:00.160Z,84
2022-12-03T22:44:00.131Z,84
2022-12-03T22:48:00.138Z,84
2022-12-03T22:52:00.138Z,84
2022-12-03T22:56:00.136Z,84
2022-12-03T23:00:00.229Z,84
2022-12-03T23:04:00.241Z,84
2022-12-03T23:08:00.216Z,84
2022-12-03T23:12:00.140Z,84
2022-12-03T23:16:00.237Z,84
2022-12-03T23:20:00.164Z,84
2022-12-03T23:24:00.125Z,84
2022-12-03T23:28:00.141Z,84
2022-12-03T23:32:00.123Z,84
2022-12-03T23:36:00.128Z,84
2022-12-03T23:40:00.133Z,85
2022-12-03T23:44:00.162Z,85
2022-12-03T23:48:00.114Z,85
2022-12-03T23:52:00.122Z,85
2022-12-03T23:56:00.138Z,85
